»·PEaware :: SWA4512 KPDX-KLAX

SWA4512 :: KPDX-KLAX

FLIGHT INFORMATION

Flight Status: Arrived
Operator:
Southwest Airlines
More flights by this operator :: More flights under this callsign
Pilot: Andrew M. (139)
Aircraft: BOEING 737-800
(B738)
More flights by this aircraft type
Origin: KPDX Portland Intl
United States
Destination: KLAX Los Angeles Intl
United States
More flights between these airports :: More routes between these airports
Route: HRMNS5 HRMNS J189 LIN BURGL IRNMN2
File this flight plan on PilotEdge
Remarks: PBN / A1B1C1D1S1S2 NAV / RNVD1E2A1 REG / N608BT EET / KZOA0036 KZLA0113 RMK / SIMBRIEF
Altitude:
(Current/Filed)
37,000ft
Speed:
(Current/Filed)
438kts
Departed: 27-Dec-18 08:31 PM
Arrived: 27-Dec-18 10:18 PM
Distance/Time
Traveled:
724nm/1:46
Distance/Time
To Go:
Arrived

Flight Plot

Page will automatically refresh every two minutes.

Flight plan parsing failed; only flown route is shown


Map Options




Map Legend


Flown Route
Filed Route
Departure Airport
Arrival Airport
Navaid (VOR, NDB)
Fix

Horizontal Profiles

Position Reports

Time Latitude Longitude Heading Altitude Ground
Speed
27-Dec-18 19:59 45.586902 -122.593153 41 24ft 0kts
27-Dec-18 20:00 45.586902 -122.593153 41 24ft 0kts
27-Dec-18 20:01 45.586902 -122.593153 41 24ft 0kts
27-Dec-18 20:02 45.586902 -122.593153 41 24ft 0kts
27-Dec-18 20:03 45.586902 -122.593153 41 24ft 0kts
27-Dec-18 20:04 45.586902 -122.593153 41 24ft 0kts
27-Dec-18 20:05 45.586902 -122.593153 41 24ft 0kts
27-Dec-18 20:06 45.586902 -122.593153 41 24ft 0kts
27-Dec-18 20:07 45.586902 -122.593153 41 24ft 0kts
27-Dec-18 20:08 45.586902 -122.593153 41 24ft 0kts
27-Dec-18 20:09 45.586902 -122.593153 41 24ft 0kts
27-Dec-18 20:10 45.586902 -122.593153 41 24ft 0kts
27-Dec-18 20:11 45.586902 -122.593153 41 24ft 0kts
27-Dec-18 20:12 45.586902 -122.593153 41 24ft 0kts
27-Dec-18 20:13 45.586902 -122.593153 41 24ft 0kts
27-Dec-18 20:14 45.586902 -122.593153 41 24ft 0kts
27-Dec-18 20:15 45.586902 -122.593153 41 24ft 0kts
27-Dec-18 20:16 45.586516 -122.593449 357 24ft 2kts
27-Dec-18 20:17 45.586155 -122.593154 305 24ft 0kts
27-Dec-18 20:18 45.586155 -122.593154 305 24ft 0kts
27-Dec-18 20:19 45.586155 -122.593154 305 24ft 0kts
27-Dec-18 20:20 45.586155 -122.593154 305 24ft 0kts
27-Dec-18 20:21 45.586156 -122.593156 305 24ft 0kts
27-Dec-18 20:22 45.586920 -122.595028 299 24ft 10kts
27-Dec-18 20:23 45.588725 -122.599617 298 22ft 15kts
27-Dec-18 20:24 45.590621 -122.601266 30 24ft 10kts
27-Dec-18 20:25 45.591631 -122.598397 9 24ft 8kts
27-Dec-18 20:26 45.593488 -122.597868 335 27ft 6kts
27-Dec-18 20:27 45.594293 -122.597729 40 27ft 0kts
27-Dec-18 20:28 45.594293 -122.597729 40 27ft 0kts
27-Dec-18 20:29 45.594784 -122.596897 64 27ft 7kts
27-Dec-18 20:30 45.590044 -122.583505 117 24ft 128kts
27-Dec-18 20:31 45.568860 -122.532757 93 1770ft 163kts
27-Dec-18 20:32 45.565934 -122.455091 101 3142ft 237kts
27-Dec-18 20:33 45.543988 -122.357473 121 5565ft 272kts
27-Dec-18 20:34 45.478837 -122.305441 171 8102ft 290kts
27-Dec-18 20:35 45.397558 -122.319482 191 10207ft 316kts
27-Dec-18 20:36 45.302924 -122.334203 188 11866ft 359kts
27-Dec-18 20:37 45.201910 -122.350251 188 14122ft 373kts
27-Dec-18 20:38 45.095717 -122.367121 189 16047ft 398kts
27-Dec-18 20:39 44.983745 -122.384832 189 18045ft 417kts
27-Dec-18 20:40 44.868200 -122.370893 169 19931ft 436kts
27-Dec-18 20:41 44.747568 -122.340407 170 21715ft 450kts
27-Dec-18 20:42 44.623886 -122.309832 170 23348ft 464kts
27-Dec-18 20:43 44.495283 -122.278333 170 24827ft 478kts
27-Dec-18 20:44 44.363726 -122.246267 170 26266ft 490kts
27-Dec-18 20:45 44.228244 -122.213384 170 27562ft 502kts
27-Dec-18 20:46 44.088943 -122.179732 170 28739ft 515kts
27-Dec-18 20:47 43.946438 -122.145504 170 29824ft 528kts
27-Dec-18 20:48 43.803527 -122.111289 170 30914ft 536kts
27-Dec-18 20:49 43.656809 -122.076321 170 32307ft 533kts
27-Dec-18 20:50 43.511328 -122.041821 170 33606ft 531kts
27-Dec-18 20:51 43.366549 -122.007630 170 35002ft 523kts
27-Dec-18 20:52 43.224626 -121.974251 170 36345ft 513kts
27-Dec-18 20:53 43.084676 -121.941530 171 37360ft 510kts
27-Dec-18 20:54 42.941785 -121.908314 171 37352ft 524kts
27-Dec-18 20:55 42.801772 -121.875921 171 37334ft 523kts
27-Dec-18 20:56 42.658192 -121.842860 171 37330ft 523kts
27-Dec-18 20:57 42.514504 -121.809918 171 37321ft 525kts
27-Dec-18 20:58 42.370704 -121.777094 171 37323ft 524kts
27-Dec-18 20:59 42.226682 -121.744357 171 37326ft 525kts
27-Dec-18 21:00 42.082571 -121.713933 173 37330ft 525kts
27-Dec-18 21:01 41.937888 -121.687147 173 37319ft 525kts
27-Dec-18 21:03 41.794053 -121.660413 173 37297ft 525kts
27-Dec-18 21:04 41.649845 -121.633719 173 37300ft 524kts
27-Dec-18 21:05 41.505112 -121.607040 173 37303ft 524kts
27-Dec-18 21:06 41.360510 -121.580499 174 37306ft 523kts
27-Dec-18 21:07 41.216720 -121.554186 174 37309ft 523kts
27-Dec-18 21:08 41.072901 -121.527924 174 37313ft 523kts
27-Dec-18 21:09 40.929162 -121.501783 174 37316ft 522kts
27-Dec-18 21:10 40.790217 -121.476622 174 37299ft 523kts
27-Dec-18 21:11 40.646075 -121.450597 174 37302ft 523kts
27-Dec-18 21:12 40.501979 -121.424705 174 37306ft 523kts
27-Dec-18 21:13 40.357793 -121.398946 174 37308ft 524kts
27-Dec-18 21:14 40.213603 -121.373243 174 37316ft 524kts
27-Dec-18 21:15 40.071744 -121.348051 175 37321ft 524kts
27-Dec-18 21:16 39.925773 -121.322072 175 37320ft 522kts
27-Dec-18 21:17 39.788465 -121.297814 175 37303ft 522kts
27-Dec-18 21:18 39.644984 -121.272584 176 37301ft 522kts
27-Dec-18 21:19 39.501331 -121.247456 175 37263ft 521kts
27-Dec-18 21:20 39.358316 -121.222552 176 37266ft 521kts
27-Dec-18 21:21 39.214927 -121.197660 176 37268ft 520kts
27-Dec-18 21:21 39.095637 -121.177064 176 37264ft 520kts
27-Dec-18 21:23 38.928495 -121.148328 176 37248ft 519kts
27-Dec-18 21:23 38.815494 -121.129008 176 37221ft 519kts
27-Dec-18 21:25 38.649032 -121.100678 176 37217ft 519kts
27-Dec-18 21:26 38.506006 -121.076426 176 37213ft 519kts
27-Dec-18 21:26 38.387121 -121.056293 176 37211ft 518kts
27-Dec-18 21:28 38.220975 -121.028340 176 37180ft 517kts
27-Dec-18 21:28 38.101970 -121.008427 176 37176ft 519kts
27-Dec-18 21:29 37.962587 -120.961055 164 37165ft 522kts
27-Dec-18 21:30 37.828591 -120.909554 166 37141ft 521kts
27-Dec-18 21:31 37.689831 -120.856796 166 37135ft 521kts
27-Dec-18 21:32 37.551333 -120.804294 166 37147ft 521kts
27-Dec-18 21:33 37.412571 -120.751884 166 37150ft 521kts
27-Dec-18 21:34 37.274347 -120.699868 166 37153ft 521kts
27-Dec-18 21:35 37.135386 -120.647746 166 37148ft 521kts
27-Dec-18 21:36 36.997488 -120.596194 166 37150ft 519kts
27-Dec-18 21:37 36.862212 -120.545797 166 37136ft 520kts
27-Dec-18 21:38 36.723563 -120.494329 166 37138ft 520kts
27-Dec-18 21:39 36.584992 -120.443073 166 37140ft 519kts
27-Dec-18 21:40 36.446612 -120.392086 166 37144ft 520kts
27-Dec-18 21:41 36.430925 -120.386317 166 37144ft 520kts
27-Dec-18 21:45 35.809106 -120.159288 167 37123ft 519kts
27-Dec-18 21:46 35.670446 -120.107669 161 37129ft 523kts
27-Dec-18 21:47 35.545612 -120.016677 149 37135ft 525kts
27-Dec-18 21:48 35.420624 -119.922777 149 37124ft 526kts
27-Dec-18 21:49 35.296463 -119.829899 150 37113ft 523kts
27-Dec-18 21:50 35.180242 -119.722580 143 37117ft 523kts
27-Dec-18 21:51 35.062649 -119.613133 142 34170ft 546kts
27-Dec-18 21:52 34.940845 -119.500155 142 30182ft 554kts
27-Dec-18 21:53 34.823150 -119.393764 143 28949ft 509kts
27-Dec-18 21:54 34.706186 -119.289866 143 25529ft 532kts
27-Dec-18 21:55 34.591579 -119.190465 143 23071ft 490kts
27-Dec-18 21:56 34.480990 -119.093517 142 19813ft 484kts
27-Dec-18 21:57 34.377275 -119.002862 142 17046ft 439kts
27-Dec-18 21:58 34.283408 -118.919556 140 14598ft 401kts
27-Dec-18 21:59 34.197273 -118.840636 139 12575ft 367kts
27-Dec-18 22:00 34.124627 -118.767190 133 11478ft 324kts
27-Dec-18 22:01 34.058653 -118.695209 135 10173ft 316kts
27-Dec-18 22:02 34.024651 -118.604221 95 8694ft 292kts
27-Dec-18 22:03 34.024558 -118.515727 81 8028ft 253kts
27-Dec-18 22:04 34.031858 -118.439192 81 7221ft 245kts
27-Dec-18 22:05 34.039307 -118.365492 81 6404ft 240kts
27-Dec-18 22:06 34.046114 -118.300172 82 5375ft 235kts
27-Dec-18 22:07 34.053468 -118.225486 82 3993ft 237kts
27-Dec-18 22:08 34.060845 -118.144093 82 3139ft 213kts
27-Dec-18 22:09 34.042257 -118.083064 160 2617ft 210kts
27-Dec-18 22:10 33.993282 -118.092952 229 2608ft 187kts
27-Dec-18 22:11 33.978170 -118.148109 266 2608ft 181kts
27-Dec-18 22:12 33.972684 -118.202543 266 2605ft 177kts
27-Dec-18 22:13 33.967280 -118.256205 266 2497ft 178kts
27-Dec-18 22:14 33.961749 -118.308974 266 1665ft 153kts
27-Dec-18 22:15 33.956351 -118.359674 272 889ft 152kts
27-Dec-18 22:16 33.951250 -118.409414 268 123ft 129kts
27-Dec-18 22:17 33.949305 -118.425550 238 115ft 17kts
27-Dec-18 22:18 33.947177 -118.427750 189 109ft 13kts
27-Dec-18 22:19 33.946455 -118.426347 85 109ft 5kts
27-Dec-18 22:20 33.946593 -118.424655 83 113ft 5kts
27-Dec-18 22:21 33.946873 -118.421964 82 116ft 10kts
27-Dec-18 22:22 33.947124 -118.419413 81 119ft 9kts
27-Dec-18 22:23 33.947523 -118.415497 83 120ft 13kts
27-Dec-18 22:24 33.948045 -118.411685 82 122ft 13kts
27-Dec-18 22:25 33.947448 -118.409139 181 122ft 8kts
27-Dec-18 22:26 33.946316 -118.408715 83 122ft 2kts
27-Dec-18 22:27 33.946340 -118.408281 88 122ft 0kts
27-Dec-18 22:28 33.946340 -118.408281 88 122ft 0kts
27-Dec-18 22:29 33.946340 -118.408281 88 122ft 0kts

Navigation Log

Ident Type
Flight plan parsing failed, navigation log unavailable